sensor_id;sensor_type;location;lat;lon;timestamp;P1;durP1;ratioP1;P2;durP2;ratioP2
21444;SDS011;10883;51.946;20.140;2023-03-16T00:01:37;98.53;;;31.83;;
21444;SDS011;10883;51.946;20.140;2023-03-16T00:04:03;59.13;;;24.40;;
21444;SDS011;10883;51.946;20.140;2023-03-16T00:06:29;68.23;;;26.97;;
21444;SDS011;10883;51.946;20.140;2023-03-16T00:08:55;123.53;;;41.07;;
21444;SDS011;10883;51.946;20.140;2023-03-16T00:11:25;92.63;;;31.27;;
21444;SDS011;10883;51.946;20.140;2023-03-16T00:13:52;65.87;;;27.77;;
21444;SDS011;10883;51.946;20.140;2023-03-16T00:16:17;69.50;;;28.23;;
21444;SDS011;10883;51.946;20.140;2023-03-16T00:18:43;63.37;;;23.67;;
21444;SDS011;10883;51.946;20.140;2023-03-16T00:21:09;62.57;;;25.10;;
21444;SDS011;10883;51.946;20.140;2023-03-16T00:23:38;54.27;;;24.57;;
21444;SDS011;10883;51.946;20.140;2023-03-16T00:26:06;56.77;;;24.33;;
21444;SDS011;10883;51.946;20.140;2023-03-16T00:28:34;58.93;;;22.83;;
21444;SDS011;10883;51.946;20.140;2023-03-16T00:31:01;54.47;;;22.60;;
21444;SDS011;10883;51.946;20.140;2023-03-16T00:33:28;51.10;;;23.23;;
21444;SDS011;10883;51.946;20.140;2023-03-16T00:35:54;49.83;;;21.73;;
21444;SDS011;10883;51.946;20.140;2023-03-16T00:38:28;46.70;;;21.73;;
21444;SDS011;10883;51.946;20.140;2023-03-16T00:40:56;50.93;;;22.10;;
21444;SDS011;10883;51.946;20.140;2023-03-16T00:43:22;48.07;;;22.53;;
21444;SDS011;10883;51.946;20.140;2023-03-16T00:45:52;50.03;;;21.93;;
21444;SDS011;10883;51.946;20.140;2023-03-16T00:48:33;52.57;;;22.67;;
21444;SDS011;10883;51.946;20.140;2023-03-16T00:51:01;51.23;;;24.63;;
21444;SDS011;10883;51.946;20.140;2023-03-16T00:53:31;51.30;;;22.60;;
21444;SDS011;10883;51.946;20.140;2023-03-16T00:56:01;48.13;;;21.77;;
21444;SDS011;10883;51.946;20.140;2023-03-16T00:58:31;45.23;;;21.73;;
21444;SDS011;10883;51.946;20.140;2023-03-16T01:01:01;54.53;;;23.20;;
21444;SDS011;10883;51.946;20.140;2023-03-16T01:03:28;40.73;;;22.27;;
21444;SDS011;10883;51.946;20.140;2023-03-16T01:05:54;49.00;;;21.33;;
21444;SDS011;10883;51.946;20.140;2023-03-16T01:08:24;53.87;;;23.87;;
21444;SDS011;10883;51.946;20.140;2023-03-16T01:10:52;49.53;;;22.37;;
21444;SDS011;10883;51.946;20.140;2023-03-16T01:13:19;39.40;;;21.30;;
21444;SDS011;10883;51.946;20.140;2023-03-16T01:15:45;47.23;;;22.83;;
21444;SDS011;10883;51.946;20.140;2023-03-16T01:18:13;48.53;;;23.20;;
21444;SDS011;10883;51.946;20.140;2023-03-16T01:20:39;49.67;;;22.30;;
21444;SDS011;10883;51.946;20.140;2023-03-16T01:23:07;48.10;;;22.93;;
21444;SDS011;10883;51.946;20.140;2023-03-16T01:25:33;54.70;;;23.27;;
21444;SDS011;10883;51.946;20.140;2023-03-16T01:27:59;57.70;;;24.27;;
21444;SDS011;10883;51.946;20.140;2023-03-16T01:30:25;56.50;;;25.40;;
21444;SDS011;10883;51.946;20.140;2023-03-16T01:32:52;61.90;;;25.97;;
21444;SDS011;10883;51.946;20.140;2023-03-16T01:35:17;49.20;;;22.50;;
21444;SDS011;10883;51.946;20.140;2023-03-16T01:37:45;53.43;;;24.00;;
21444;SDS011;10883;51.946;20.140;2023-03-16T01:40:11;44.00;;;21.13;;
21444;SDS011;10883;51.946;20.140;2023-03-16T01:42:44;50.93;;;23.10;;
21444;SDS011;10883;51.946;20.140;2023-03-16T01:48:20;54.73;;;24.57;;
21444;SDS011;10883;51.946;20.140;2023-03-16T01:50:48;57.00;;;24.23;;
21444;SDS011;10883;51.946;20.140;2023-03-16T01:53:16;75.57;;;28.80;;
21444;SDS011;10883;51.946;20.140;2023-03-16T01:55:43;57.70;;;23.13;;
21444;SDS011;10883;51.946;20.140;2023-03-16T01:58:10;50.77;;;22.13;;
21444;SDS011;10883;51.946;20.140;2023-03-16T02:00:39;57.80;;;25.30;;
21444;SDS011;10883;51.946;20.140;2023-03-16T02:03:13;76.70;;;30.10;;
21444;SDS011;10883;51.946;20.140;2023-03-16T02:05:42;99.50;;;40.87;;
21444;SDS011;10883;51.946;20.140;2023-03-16T02:08:12;92.00;;;39.17;;
21444;SDS011;10883;51.946;20.140;2023-03-16T02:10:38;91.67;;;38.23;;
21444;SDS011;10883;51.946;20.140;2023-03-16T02:13:05;110.70;;;44.97;;
21444;SDS011;10883;51.946;20.140;2023-03-16T02:15:30;136.13;;;48.07;;
21444;SDS011;10883;51.946;20.140;2023-03-16T02:17:56;115.17;;;43.93;;
21444;SDS011;10883;51.946;20.140;2023-03-16T02:22:52;120.60;;;43.47;;
21444;SDS011;10883;51.946;20.140;2023-03-16T02:25:20;120.53;;;44.80;;
21444;SDS011;10883;51.946;20.140;2023-03-16T02:28:24;117.00;;;41.80;;
21444;SDS011;10883;51.946;20.140;2023-03-16T02:30:40;101.20;;;39.03;;
21444;SDS011;10883;51.946;20.140;2023-03-16T02:33:06;113.20;;;41.20;;
21444;SDS011;10883;51.946;20.140;2023-03-16T02:35:32;98.90;;;38.57;;
21444;SDS011;10883;51.946;20.140;2023-03-16T02:37:58;98.57;;;36.57;;
21444;SDS011;10883;51.946;20.140;2023-03-16T02:40:27;87.03;;;35.53;;
21444;SDS011;10883;51.946;20.140;2023-03-16T02:43:01;90.13;;;35.90;;
21444;SDS011;10883;51.946;20.140;2023-03-16T02:51:17;85.83;;;34.97;;
21444;SDS011;10883;51.946;20.140;2023-03-16T02:53:43;87.77;;;35.70;;
21444;SDS011;10883;51.946;20.140;2023-03-16T02:56:09;95.57;;;37.57;;
21444;SDS011;10883;51.946;20.140;2023-03-16T02:58:35;92.67;;;37.93;;
21444;SDS011;10883;51.946;20.140;2023-03-16T03:01:01;85.33;;;34.33;;
21444;SDS011;10883;51.946;20.140;2023-03-16T03:03:27;87.27;;;34.87;;
21444;SDS011;10883;51.946;20.140;2023-03-16T03:05:53;83.47;;;34.43;;
21444;SDS011;10883;51.946;20.140;2023-03-16T03:08:19;80.07;;;32.97;;
21444;SDS011;10883;51.946;20.140;2023-03-16T03:10:46;73.73;;;31.17;;
21444;SDS011;10883;51.946;20.140;2023-03-16T03:13:12;69.77;;;28.47;;
21444;SDS011;10883;51.946;20.140;2023-03-16T03:15:38;67.67;;;28.30;;
21444;SDS011;10883;51.946;20.140;2023-03-16T03:18:04;62.60;;;25.97;;
21444;SDS011;10883;51.946;20.140;2023-03-16T03:20:30;58.90;;;25.90;;
21444;SDS011;10883;51.946;20.140;2023-03-16T03:22:56;67.63;;;25.93;;
21444;SDS011;10883;51.946;20.140;2023-03-16T03:25:22;59.87;;;24.83;;
21444;SDS011;10883;51.946;20.140;2023-03-16T03:27:48;70.73;;;26.83;;
21444;SDS011;10883;51.946;20.140;2023-03-16T03:30:16;53.67;;;23.57;;
21444;SDS011;10883;51.946;20.140;2023-03-16T03:32:44;57.73;;;23.67;;
21444;SDS011;10883;51.946;20.140;2023-03-16T03:35:11;51.23;;;22.57;;
21444;SDS011;10883;51.946;20.140;2023-03-16T03:37:38;56.73;;;23.90;;
21444;SDS011;10883;51.946;20.140;2023-03-16T03:40:05;48.63;;;22.60;;
21444;SDS011;10883;51.946;20.140;2023-03-16T03:42:32;50.83;;;22.70;;
21444;SDS011;10883;51.946;20.140;2023-03-16T03:44:57;55.93;;;22.53;;
21444;SDS011;10883;51.946;20.140;2023-03-16T03:47:23;54.73;;;22.73;;
21444;SDS011;10883;51.946;20.140;2023-03-16T03:49:49;55.10;;;23.27;;
21444;SDS011;10883;51.946;20.140;2023-03-16T03:52:14;54.23;;;22.07;;
21444;SDS011;10883;51.946;20.140;2023-03-16T03:54:40;53.00;;;23.33;;
21444;SDS011;10883;51.946;20.140;2023-03-16T03:57:06;75.93;;;25.37;;
21444;SDS011;10883;51.946;20.140;2023-03-16T03:59:32;62.70;;;22.57;;
21444;SDS011;10883;51.946;20.140;2023-03-16T04:01:59;57.03;;;23.50;;
21444;SDS011;10883;51.946;20.140;2023-03-16T04:04:25;52.97;;;21.87;;
21444;SDS011;10883;51.946;20.140;2023-03-16T04:06:50;53.43;;;21.27;;
21444;SDS011;10883;51.946;20.140;2023-03-16T04:09:16;54.23;;;22.03;;
21444;SDS011;10883;51.946;20.140;2023-03-16T04:11:42;61.93;;;24.93;;
21444;SDS011;10883;51.946;20.140;2023-03-16T04:14:08;54.47;;;23.37;;
21444;SDS011;10883;51.946;20.140;2023-03-16T04:16:34;52.97;;;22.83;;
21444;SDS011;10883;51.946;20.140;2023-03-16T04:18:59;65.23;;;25.13;;
21444;SDS011;10883;51.946;20.140;2023-03-16T04:21:25;54.33;;;23.50;;
21444;SDS011;10883;51.946;20.140;2023-03-16T04:23:51;52.73;;;22.43;;
21444;SDS011;10883;51.946;20.140;2023-03-16T04:26:18;54.23;;;22.40;;
21444;SDS011;10883;51.946;20.140;2023-03-16T04:28:49;54.57;;;22.03;;
21444;SDS011;10883;51.946;20.140;2023-03-16T04:31:16;46.77;;;21.77;;
21444;SDS011;10883;51.946;20.140;2023-03-16T04:33:42;50.83;;;21.80;;
21444;SDS011;10883;51.946;20.140;2023-03-16T04:36:08;53.07;;;21.73;;
21444;SDS011;10883;51.946;20.140;2023-03-16T04:38:34;57.17;;;24.10;;
21444;SDS011;10883;51.946;20.140;2023-03-16T04:41:03;56.67;;;25.10;;
21444;SDS011;10883;51.946;20.140;2023-03-16T04:43:30;53.27;;;24.77;;
21444;SDS011;10883;51.946;20.140;2023-03-16T04:46:01;63.23;;;23.43;;
21444;SDS011;10883;51.946;20.140;2023-03-16T04:48:29;57.83;;;24.40;;
21444;SDS011;10883;51.946;20.140;2023-03-16T04:50:56;54.37;;;22.87;;
21444;SDS011;10883;51.946;20.140;2023-03-16T04:53:22;61.33;;;24.37;;
21444;SDS011;10883;51.946;20.140;2023-03-16T04:55:49;62.00;;;27.40;;
21444;SDS011;10883;51.946;20.140;2023-03-16T04:58:15;59.40;;;27.17;;
21444;SDS011;10883;51.946;20.140;2023-03-16T05:00:41;68.03;;;28.27;;
21444;SDS011;10883;51.946;20.140;2023-03-16T05:03:07;73.97;;;28.73;;
21444;SDS011;10883;51.946;20.140;2023-03-16T05:05:37;80.37;;;30.93;;
21444;SDS011;10883;51.946;20.140;2023-03-16T05:08:04;92.63;;;36.20;;
21444;SDS011;10883;51.946;20.140;2023-03-16T05:10:31;112.30;;;42.37;;
21444;SDS011;10883;51.946;20.140;2023-03-16T05:12:57;135.00;;;47.53;;
21444;SDS011;10883;51.946;20.140;2023-03-16T05:15:23;132.53;;;46.73;;
21444;SDS011;10883;51.946;20.140;2023-03-16T05:17:49;127.90;;;47.97;;
21444;SDS011;10883;51.946;20.140;2023-03-16T05:20:15;130.87;;;50.67;;
21444;SDS011;10883;51.946;20.140;2023-03-16T05:22:43;128.07;;;51.63;;
21444;SDS011;10883;51.946;20.140;2023-03-16T05:25:10;154.10;;;54.77;;
21444;SDS011;10883;51.946;20.140;2023-03-16T05:27:49;141.00;;;55.00;;
21444;SDS011;10883;51.946;20.140;2023-03-16T05:33:00;130.83;;;50.40;;
21444;SDS011;10883;51.946;20.140;2023-03-16T05:35:58;155.80;;;50.23;;
21444;SDS011;10883;51.946;20.140;2023-03-16T05:38:56;133.73;;;47.70;;
21444;SDS011;10883;51.946;20.140;2023-03-16T05:41:23;135.37;;;46.40;;
21444;SDS011;10883;51.946;20.140;2023-03-16T05:43:49;136.47;;;45.53;;
21444;SDS011;10883;51.946;20.140;2023-03-16T05:46:15;138.47;;;46.80;;
21444;SDS011;10883;51.946;20.140;2023-03-16T05:48:40;144.00;;;48.17;;
21444;SDS011;10883;51.946;20.140;2023-03-16T05:51:06;140.93;;;48.60;;
21444;SDS011;10883;51.946;20.140;2023-03-16T05:53:32;135.87;;;44.07;;
21444;SDS011;10883;51.946;20.140;2023-03-16T05:55:59;130.87;;;42.87;;
21444;SDS011;10883;51.946;20.140;2023-03-16T05:58:26;125.20;;;42.50;;
21444;SDS011;10883;51.946;20.140;2023-03-16T06:00:52;130.63;;;43.25;;
21444;SDS011;10883;51.946;20.140;2023-03-16T06:03:19;105.60;;;39.63;;
21444;SDS011;10883;51.946;20.140;2023-03-16T06:05:46;94.03;;;34.73;;
21444;SDS011;10883;51.946;20.140;2023-03-16T06:08:13;64.90;;;28.90;;
21444;SDS011;10883;51.946;20.140;2023-03-16T06:10:39;50.33;;;23.43;;
21444;SDS011;10883;51.946;20.140;2023-03-16T06:13:05;49.47;;;22.87;;
21444;SDS011;10883;51.946;20.140;2023-03-16T06:15:31;65.60;;;28.27;;
21444;SDS011;10883;51.946;20.140;2023-03-16T06:17:57;64.20;;;28.37;;
21444;SDS011;10883;51.946;20.140;2023-03-16T06:20:23;54.75;;;24.80;;
21444;SDS011;10883;51.946;20.140;2023-03-16T06:22:49;71.45;;;28.55;;
21444;SDS011;10883;51.946;20.140;2023-03-16T06:25:14;43.83;;;20.02;;
21444;SDS011;10883;51.946;20.140;2023-03-16T06:27:41;37.65;;;19.02;;
21444;SDS011;10883;51.946;20.140;2023-03-16T06:30:08;37.92;;;18.10;;
21444;SDS011;10883;51.946;20.140;2023-03-16T06:32:36;40.47;;;14.77;;
21444;SDS011;10883;51.946;20.140;2023-03-16T06:35:03;33.85;;;14.82;;
21444;SDS011;10883;51.946;20.140;2023-03-16T06:37:29;33.47;;;14.07;;
21444;SDS011;10883;51.946;20.140;2023-03-16T06:39:55;31.23;;;13.68;;
21444;SDS011;10883;51.946;20.140;2023-03-16T06:42:21;26.70;;;11.80;;
21444;SDS011;10883;51.946;20.140;2023-03-16T06:44:47;24.55;;;12.05;;
21444;SDS011;10883;51.946;20.140;2023-03-16T06:47:13;29.10;;;13.18;;
21444;SDS011;10883;51.946;20.140;2023-03-16T06:49:39;34.10;;;14.57;;
21444;SDS011;10883;51.946;20.140;2023-03-16T06:52:05;23.58;;;12.80;;
21444;SDS011;10883;51.946;20.140;2023-03-16T06:54:31;29.23;;;13.43;;
21444;SDS011;10883;51.946;20.140;2023-03-16T06:56:59;26.45;;;13.43;;
21444;SDS011;10883;51.946;20.140;2023-03-16T06:59:25;34.53;;;14.02;;
21444;SDS011;10883;51.946;20.140;2023-03-16T07:01:51;30.60;;;13.55;;
21444;SDS011;10883;51.946;20.140;2023-03-16T07:04:17;24.15;;;12.60;;
21444;SDS011;10883;51.946;20.140;2023-03-16T07:06:42;34.10;;;15.50;;
21444;SDS011;10883;51.946;20.140;2023-03-16T07:09:08;29.45;;;13.80;;
21444;SDS011;10883;51.946;20.140;2023-03-16T07:11:34;51.25;;;19.15;;
21444;SDS011;10883;51.946;20.140;2023-03-16T07:14:00;28.02;;;12.98;;
21444;SDS011;10883;51.946;20.140;2023-03-16T07:16:26;32.30;;;13.23;;
21444;SDS011;10883;51.946;20.140;2023-03-16T07:18:52;31.02;;;14.07;;
21444;SDS011;10883;51.946;20.140;2023-03-16T07:21:18;20.45;;;9.95;;
21444;SDS011;10883;51.946;20.140;2023-03-16T07:23:44;19.80;;;10.00;;
21444;SDS011;10883;51.946;20.140;2023-03-16T07:26:10;19.92;;;9.82;;
21444;SDS011;10883;51.946;20.140;2023-03-16T07:28:37;21.08;;;9.45;;
21444;SDS011;10883;51.946;20.140;2023-03-16T07:31:03;24.05;;;11.02;;
21444;SDS011;10883;51.946;20.140;2023-03-16T07:33:33;17.67;;;8.40;;
21444;SDS011;10883;51.946;20.140;2023-03-16T07:35:59;17.98;;;8.70;;
21444;SDS011;10883;51.946;20.140;2023-03-16T07:38:28;24.15;;;10.65;;
21444;SDS011;10883;51.946;20.140;2023-03-16T07:40:56;20.73;;;8.20;;
21444;SDS011;10883;51.946;20.140;2023-03-16T07:43:23;15.20;;;8.00;;
21444;SDS011;10883;51.946;20.140;2023-03-16T07:45:49;24.00;;;8.68;;
21444;SDS011;10883;51.946;20.140;2023-03-16T07:48:16;17.58;;;8.93;;
21444;SDS011;10883;51.946;20.140;2023-03-16T07:50:42;15.88;;;7.65;;
21444;SDS011;10883;51.946;20.140;2023-03-16T07:53:08;17.92;;;9.13;;
21444;SDS011;10883;51.946;20.140;2023-03-16T07:55:34;25.20;;;10.25;;
21444;SDS011;10883;51.946;20.140;2023-03-16T07:58:01;22.63;;;8.88;;
21444;SDS011;10883;51.946;20.140;2023-03-16T08:00:29;18.25;;;8.88;;
21444;SDS011;10883;51.946;20.140;2023-03-16T08:02:54;18.17;;;7.95;;
21444;SDS011;10883;51.946;20.140;2023-03-16T08:05:21;20.00;;;8.98;;
21444;SDS011;10883;51.946;20.140;2023-03-16T08:07:47;17.27;;;8.93;;
21444;SDS011;10883;51.946;20.140;2023-03-16T08:10:13;14.57;;;7.63;;
21444;SDS011;10883;51.946;20.140;2023-03-16T08:12:39;13.70;;;7.05;;
21444;SDS011;10883;51.946;20.140;2023-03-16T08:15:06;16.58;;;7.68;;
21444;SDS011;10883;51.946;20.140;2023-03-16T08:17:32;19.88;;;8.68;;
21444;SDS011;10883;51.946;20.140;2023-03-16T08:19:58;12.75;;;7.03;;
21444;SDS011;10883;51.946;20.140;2023-03-16T08:22:24;15.70;;;7.32;;
21444;SDS011;10883;51.946;20.140;2023-03-16T08:24:50;16.35;;;7.47;;
21444;SDS011;10883;51.946;20.140;2023-03-16T08:27:16;14.30;;;8.00;;
21444;SDS011;10883;51.946;20.140;2023-03-16T08:29:44;16.27;;;7.95;;
21444;SDS011;10883;51.946;20.140;2023-03-16T08:32:10;16.48;;;7.80;;
21444;SDS011;10883;51.946;20.140;2023-03-16T08:34:36;11.77;;;7.57;;
21444;SDS011;10883;51.946;20.140;2023-03-16T08:37:04;18.30;;;8.18;;
21444;SDS011;10883;51.946;20.140;2023-03-16T08:39:30;16.27;;;8.60;;
21444;SDS011;10883;51.946;20.140;2023-03-16T08:41:57;13.98;;;7.85;;
21444;SDS011;10883;51.946;20.140;2023-03-16T08:44:23;17.63;;;7.90;;
21444;SDS011;10883;51.946;20.140;2023-03-16T08:46:50;13.73;;;7.72;;
21444;SDS011;10883;51.946;20.140;2023-03-16T08:49:16;11.98;;;7.28;;
21444;SDS011;10883;51.946;20.140;2023-03-16T08:51:45;15.55;;;7.05;;
21444;SDS011;10883;51.946;20.140;2023-03-16T08:54:11;12.30;;;5.93;;
21444;SDS011;10883;51.946;20.140;2023-03-16T08:56:37;19.58;;;8.15;;
21444;SDS011;10883;51.946;20.140;2023-03-16T08:59:02;10.90;;;6.88;;
21444;SDS011;10883;51.946;20.140;2023-03-16T09:01:29;10.25;;;5.43;;
21444;SDS011;10883;51.946;20.140;2023-03-16T09:03:56;11.45;;;4.90;;
21444;SDS011;10883;51.946;20.140;2023-03-16T09:06:22;11.13;;;5.90;;
21444;SDS011;10883;51.946;20.140;2023-03-16T09:08:48;12.30;;;6.05;;
21444;SDS011;10883;51.946;20.140;2023-03-16T09:11:15;17.02;;;6.97;;
21444;SDS011;10883;51.946;20.140;2023-03-16T09:13:42;9.02;;;4.88;;
21444;SDS011;10883;51.946;20.140;2023-03-16T09:16:10;9.98;;;5.40;;
21444;SDS011;10883;51.946;20.140;2023-03-16T09:18:37;9.98;;;5.90;;
21444;SDS011;10883;51.946;20.140;2023-03-16T09:21:05;12.85;;;5.38;;
21444;SDS011;10883;51.946;20.140;2023-03-16T09:23:32;8.65;;;4.63;;
21444;SDS011;10883;51.946;20.140;2023-03-16T09:26:00;11.02;;;5.40;;
21444;SDS011;10883;51.946;20.140;2023-03-16T09:28:27;7.63;;;3.65;;
21444;SDS011;10883;51.946;20.140;2023-03-16T09:30:54;7.85;;;3.30;;
21444;SDS011;10883;51.946;20.140;2023-03-16T09:33:22;6.22;;;2.75;;
21444;SDS011;10883;51.946;20.140;2023-03-16T09:35:49;7.28;;;2.67;;
21444;SDS011;10883;51.946;20.140;2023-03-16T09:38:16;9.82;;;3.65;;
21444;SDS011;10883;51.946;20.140;2023-03-16T09:40:43;6.80;;;3.55;;
21444;SDS011;10883;51.946;20.140;2023-03-16T09:48:19;9.23;;;3.35;;
21444;SDS011;10883;51.946;20.140;2023-03-16T09:50:46;7.82;;;3.05;;
21444;SDS011;10883;51.946;20.140;2023-03-16T09:53:23;8.07;;;2.80;;
21444;SDS011;10883;51.946;20.140;2023-03-16T09:56:02;11.15;;;4.28;;
21444;SDS011;10883;51.946;20.140;2023-03-16T09:58:28;6.40;;;2.58;;
21444;SDS011;10883;51.946;20.140;2023-03-16T10:01:07;15.50;;;3.75;;
21444;SDS011;10883;51.946;20.140;2023-03-16T10:06:41;19.00;;;6.78;;
21444;SDS011;10883;51.946;20.140;2023-03-16T10:09:36;20.00;;;6.10;;
21444;SDS011;10883;51.946;20.140;2023-03-16T10:12:09;13.88;;;4.07;;
21444;SDS011;10883;51.946;20.140;2023-03-16T10:20:13;11.80;;;4.10;;
21444;SDS011;10883;51.946;20.140;2023-03-16T10:22:43;13.40;;;5.03;;
21444;SDS011;10883;51.946;20.140;2023-03-16T10:25:25;11.68;;;3.88;;
21444;SDS011;10883;51.946;20.140;2023-03-16T10:28:14;38.45;;;10.35;;
21444;SDS011;10883;51.946;20.140;2023-03-16T10:30:42;14.55;;;4.85;;
21444;SDS011;10883;51.946;20.140;2023-03-16T10:35:54;22.92;;;5.40;;
21444;SDS011;10883;51.946;20.140;2023-03-16T10:43:45;25.98;;;6.82;;
21444;SDS011;10883;51.946;20.140;2023-03-16T10:46:14;11.18;;;4.15;;
21444;SDS011;10883;51.946;20.140;2023-03-16T10:48:40;13.90;;;2.88;;
21444;SDS011;10883;51.946;20.140;2023-03-16T10:51:10;24.50;;;6.90;;
21444;SDS011;10883;51.946;20.140;2023-03-16T10:53:42;13.35;;;4.30;;
21444;SDS011;10883;51.946;20.140;2023-03-16T10:56:12;11.65;;;5.05;;
21444;SDS011;10883;51.946;20.140;2023-03-16T10:58:46;8.10;;;3.53;;
21444;SDS011;10883;51.946;20.140;2023-03-16T11:01:23;11.27;;;3.90;;
21444;SDS011;10883;51.946;20.140;2023-03-16T11:03:54;17.95;;;6.35;;
21444;SDS011;10883;51.946;20.140;2023-03-16T11:06:26;14.10;;;4.97;;
21444;SDS011;10883;51.946;20.140;2023-03-16T11:08:54;10.63;;;3.80;;
21444;SDS011;10883;51.946;20.140;2023-03-16T11:11:33;8.50;;;3.15;;
21444;SDS011;10883;51.946;20.140;2023-03-16T11:14:01;10.18;;;3.53;;
21444;SDS011;10883;51.946;20.140;2023-03-16T11:22:16;9.68;;;3.85;;
21444;SDS011;10883;51.946;20.140;2023-03-16T11:32:43;8.48;;;2.85;;
21444;SDS011;10883;51.946;20.140;2023-03-16T11:35:16;8.88;;;2.97;;
21444;SDS011;10883;51.946;20.140;2023-03-16T11:43:56;8.90;;;3.38;;
21444;SDS011;10883;51.946;20.140;2023-03-16T12:00:19;11.23;;;4.90;;
21444;SDS011;10883;51.946;20.140;2023-03-16T12:06:08;5.85;;;3.22;;
21444;SDS011;10883;51.946;20.140;2023-03-16T12:11:29;4.93;;;2.40;;
21444;SDS011;10883;51.946;20.140;2023-03-16T12:14:05;6.85;;;3.05;;
21444;SDS011;10883;51.946;20.140;2023-03-16T12:19:23;11.82;;;3.83;;
21444;SDS011;10883;51.946;20.140;2023-03-16T12:22:01;9.32;;;2.70;;
21444;SDS011;10883;51.946;20.140;2023-03-16T12:24:38;8.68;;;3.28;;
21444;SDS011;10883;51.946;20.140;2023-03-16T12:27:10;9.02;;;3.10;;
21444;SDS011;10883;51.946;20.140;2023-03-16T12:35:44;6.03;;;2.40;;
21444;SDS011;10883;51.946;20.140;2023-03-16T12:43:45;6.93;;;2.10;;
21444;SDS011;10883;51.946;20.140;2023-03-16T12:46:16;12.18;;;2.90;;
21444;SDS011;10883;51.946;20.140;2023-03-16T12:48:54;7.70;;;2.85;;
21444;SDS011;10883;51.946;20.140;2023-03-16T12:51:38;8.48;;;2.70;;
21444;SDS011;10883;51.946;20.140;2023-03-16T12:54:16;7.93;;;3.50;;
21444;SDS011;10883;51.946;20.140;2023-03-16T12:56:44;5.38;;;2.55;;
21444;SDS011;10883;51.946;20.140;2023-03-16T12:59:18;10.90;;;3.28;;
21444;SDS011;10883;51.946;20.140;2023-03-16T13:01:49;7.15;;;2.65;;
21444;SDS011;10883;51.946;20.140;2023-03-16T13:04:21;11.50;;;4.45;;
21444;SDS011;10883;51.946;20.140;2023-03-16T13:07:03;10.95;;;3.38;;
21444;SDS011;10883;51.946;20.140;2023-03-16T13:09:39;9.93;;;2.78;;
21444;SDS011;10883;51.946;20.140;2023-03-16T13:12:19;4.22;;;1.95;;
21444;SDS011;10883;51.946;20.140;2023-03-16T13:14:51;6.18;;;2.38;;
21444;SDS011;10883;51.946;20.140;2023-03-16T13:17:25;3.70;;;1.95;;
21444;SDS011;10883;51.946;20.140;2023-03-16T13:22:50;7.80;;;3.42;;
21444;SDS011;10883;51.946;20.140;2023-03-16T13:27:55;7.85;;;2.70;;
21444;SDS011;10883;51.946;20.140;2023-03-16T13:30:27;5.05;;;2.03;;
21444;SDS011;10883;51.946;20.140;2023-03-16T13:32:56;9.02;;;3.70;;
21444;SDS011;10883;51.946;20.140;2023-03-16T13:35:28;9.90;;;3.47;;
21444;SDS011;10883;51.946;20.140;2023-03-16T13:38:01;10.02;;;3.40;;
21444;SDS011;10883;51.946;20.140;2023-03-16T13:40:29;9.43;;;3.10;;
21444;SDS011;10883;51.946;20.140;2023-03-16T13:42:56;11.05;;;2.60;;
21444;SDS011;10883;51.946;20.140;2023-03-16T13:45:27;10.57;;;2.83;;
21444;SDS011;10883;51.946;20.140;2023-03-16T13:47:56;7.43;;;2.50;;
21444;SDS011;10883;51.946;20.140;2023-03-16T13:50:23;7.88;;;2.75;;
21444;SDS011;10883;51.946;20.140;2023-03-16T13:52:56;7.22;;;2.67;;
21444;SDS011;10883;51.946;20.140;2023-03-16T13:55:29;6.65;;;3.35;;
21444;SDS011;10883;51.946;20.140;2023-03-16T13:57:57;13.90;;;5.07;;
21444;SDS011;10883;51.946;20.140;2023-03-16T14:00:24;7.68;;;3.60;;
21444;SDS011;10883;51.946;20.140;2023-03-16T14:02:55;11.98;;;3.17;;
21444;SDS011;10883;51.946;20.140;2023-03-16T14:07:50;14.23;;;5.82;;
21444;SDS011;10883;51.946;20.140;2023-03-16T14:10:17;11.10;;;4.13;;
21444;SDS011;10883;51.946;20.140;2023-03-16T14:12:57;14.40;;;3.00;;
21444;SDS011;10883;51.946;20.140;2023-03-16T14:15:46;6.63;;;3.40;;
21444;SDS011;10883;51.946;20.140;2023-03-16T14:18:16;8.20;;;4.22;;
21444;SDS011;10883;51.946;20.140;2023-03-16T14:20:54;6.97;;;2.78;;
21444;SDS011;10883;51.946;20.140;2023-03-16T14:23:25;7.93;;;3.75;;
21444;SDS011;10883;51.946;20.140;2023-03-16T14:25:55;8.93;;;3.33;;
21444;SDS011;10883;51.946;20.140;2023-03-16T14:28:26;8.95;;;3.20;;
21444;SDS011;10883;51.946;20.140;2023-03-16T14:31:01;6.70;;;2.83;;
21444;SDS011;10883;51.946;20.140;2023-03-16T14:33:34;6.45;;;2.95;;
21444;SDS011;10883;51.946;20.140;2023-03-16T14:36:11;13.50;;;4.10;;
21444;SDS011;10883;51.946;20.140;2023-03-16T14:38:39;9.35;;;3.60;;
21444;SDS011;10883;51.946;20.140;2023-03-16T14:43:36;7.28;;;3.08;;
21444;SDS011;10883;51.946;20.140;2023-03-16T14:46:12;8.63;;;4.32;;
21444;SDS011;10883;51.946;20.140;2023-03-16T14:48:50;6.88;;;3.00;;
21444;SDS011;10883;51.946;20.140;2023-03-16T14:51:16;10.32;;;2.88;;
21444;SDS011;10883;51.946;20.140;2023-03-16T14:53:42;6.43;;;2.92;;
21444;SDS011;10883;51.946;20.140;2023-03-16T14:56:11;8.93;;;2.72;;
21444;SDS011;10883;51.946;20.140;2023-03-16T14:58:40;9.60;;;2.97;;
21444;SDS011;10883;51.946;20.140;2023-03-16T15:01:08;9.38;;;2.80;;
21444;SDS011;10883;51.946;20.140;2023-03-16T15:03:40;10.02;;;3.58;;
21444;SDS011;10883;51.946;20.140;2023-03-16T15:06:07;9.93;;;3.83;;
21444;SDS011;10883;51.946;20.140;2023-03-16T15:08:34;9.73;;;4.40;;
21444;SDS011;10883;51.946;20.140;2023-03-16T15:11:07;16.17;;;5.03;;
21444;SDS011;10883;51.946;20.140;2023-03-16T15:13:33;9.07;;;4.65;;
21444;SDS011;10883;51.946;20.140;2023-03-16T15:16:20;9.73;;;4.50;;
21444;SDS011;10883;51.946;20.140;2023-03-16T15:18:46;14.82;;;4.65;;
21444;SDS011;10883;51.946;20.140;2023-03-16T15:21:17;14.98;;;6.30;;
21444;SDS011;10883;51.946;20.140;2023-03-16T15:23:45;18.98;;;9.00;;
21444;SDS011;10883;51.946;20.140;2023-03-16T15:26:15;15.80;;;7.13;;
21444;SDS011;10883;51.946;20.140;2023-03-16T15:28:46;9.27;;;3.35;;
21444;SDS011;10883;51.946;20.140;2023-03-16T15:31:12;10.52;;;3.80;;
21444;SDS011;10883;51.946;20.140;2023-03-16T15:33:38;12.77;;;4.63;;
21444;SDS011;10883;51.946;20.140;2023-03-16T15:36:09;13.10;;;5.72;;
21444;SDS011;10883;51.946;20.140;2023-03-16T15:38:49;9.30;;;3.97;;
21444;SDS011;10883;51.946;20.140;2023-03-16T15:41:17;10.60;;;3.40;;
21444;SDS011;10883;51.946;20.140;2023-03-16T15:43:43;7.60;;;3.03;;
21444;SDS011;10883;51.946;20.140;2023-03-16T15:46:12;14.98;;;5.68;;
21444;SDS011;10883;51.946;20.140;2023-03-16T15:48:38;8.40;;;3.83;;
21444;SDS011;10883;51.946;20.140;2023-03-16T15:53:41;20.08;;;7.07;;
21444;SDS011;10883;51.946;20.140;2023-03-16T15:56:14;17.92;;;5.93;;
21444;SDS011;10883;51.946;20.140;2023-03-16T15:58:42;10.93;;;4.32;;
21444;SDS011;10883;51.946;20.140;2023-03-16T16:01:31;11.00;;;4.25;;
21444;SDS011;10883;51.946;20.140;2023-03-16T16:04:02;15.65;;;5.80;;
21444;SDS011;10883;51.946;20.140;2023-03-16T16:06:30;11.30;;;4.85;;
21444;SDS011;10883;51.946;20.140;2023-03-16T16:08:57;13.05;;;3.88;;